sensor_id;sensor_type;location;lat;lon;timestamp;temperature;humidity
1137;DHT22;557;48.466;7.950;2023-01-29T00:01:14;1.50;1.00
1137;DHT22;557;48.466;7.950;2023-01-29T00:04:03;1.50;1.00
1137;DHT22;557;48.466;7.950;2023-01-29T00:06:50;1.50;1.00
1137;DHT22;557;48.466;7.950;2023-01-29T00:09:38;1.50;1.00
1137;DHT22;557;48.466;7.950;2023-01-29T00:12:25;1.50;1.00
1137;DHT22;557;48.466;7.950;2023-01-29T00:15:12;1.50;1.00
1137;DHT22;557;48.466;7.950;2023-01-29T00:18:00;1.40;12.90
1137;DHT22;557;48.466;7.950;2023-01-29T00:20:48;1.50;1.00
1137;DHT22;557;48.466;7.950;2023-01-29T00:23:36;1.50;1.00
1137;DHT22;557;48.466;7.950;2023-01-29T00:26:23;1.50;1.00
1137;DHT22;557;48.466;7.950;2023-01-29T00:29:10;1.50;1.00
1137;DHT22;557;48.466;7.950;2023-01-29T00:31:59;1.50;1.00
1137;DHT22;557;48.466;7.950;2023-01-29T00:34:46;1.50;1.00
1137;DHT22;557;48.466;7.950;2023-01-29T00:37:35;1.50;1.00
1137;DHT22;557;48.466;7.950;2023-01-29T00:40:22;1.50;1.00
1137;DHT22;557;48.466;7.950;2023-01-29T00:43:10;1.50;1.00
1137;DHT22;557;48.466;7.950;2023-01-29T00:46:15;1.50;1.00
1137;DHT22;557;48.466;7.950;2023-01-29T00:49:02;1.40;1.00
1137;DHT22;557;48.466;7.950;2023-01-29T00:51:50;1.40;1.00
1137;DHT22;557;48.466;7.950;2023-01-29T00:54:55;1.40;1.00
1137;DHT22;557;48.466;7.950;2023-01-29T00:57:42;1.30;1.00
1137;DHT22;557;48.466;7.950;2023-01-29T01:00:29;1.30;1.00
1137;DHT22;557;48.466;7.950;2023-01-29T01:03:17;1.30;4.20
1137;DHT22;557;48.466;7.950;2023-01-29T01:06:04;1.30;1.00
1137;DHT22;557;48.466;7.950;2023-01-29T01:08:52;1.30;60.20
1137;DHT22;557;48.466;7.950;2023-01-29T01:11:58;1.30;1.00
1137;DHT22;557;48.466;7.950;2023-01-29T01:14:46;1.30;1.00
1137;DHT22;557;48.466;7.950;2023-01-29T01:17:33;1.30;15.00
1137;DHT22;557;48.466;7.950;2023-01-29T01:20:21;1.20;1.00
1137;DHT22;557;48.466;7.950;2023-01-29T01:23:08;1.20;1.00
1137;DHT22;557;48.466;7.950;2023-01-29T01:25:55;1.20;1.00
1137;DHT22;557;48.466;7.950;2023-01-29T01:28:44;1.20;48.00
1137;DHT22;557;48.466;7.950;2023-01-29T01:31:31;1.20;30.70
1137;DHT22;557;48.466;7.950;2023-01-29T01:34:19;1.20;37.60
1137;DHT22;557;48.466;7.950;2023-01-29T01:37:07;1.20;65.20
1137;DHT22;557;48.466;7.950;2023-01-29T01:39:54;1.10;99.90
1137;DHT22;557;48.466;7.950;2023-01-29T01:42:44;1.10;99.90
1137;DHT22;557;48.466;7.950;2023-01-29T01:45:34;1.10;10.70
1137;DHT22;557;48.466;7.950;2023-01-29T01:48:24;1.10;1.00
1137;DHT22;557;48.466;7.950;2023-01-29T01:51:14;1.10;9.70
1137;DHT22;557;48.466;7.950;2023-01-29T01:54:06;1.00;34.60
1137;DHT22;557;48.466;7.950;2023-01-29T01:56:59;1.10;99.90
1137;DHT22;557;48.466;7.950;2023-01-29T01:59:57;1.00;4.60
1137;DHT22;557;48.466;7.950;2023-01-29T02:02:47;1.10;99.90
1137;DHT22;557;48.466;7.950;2023-01-29T02:05:53;1.10;99.90
1137;DHT22;557;48.466;7.950;2023-01-29T02:09:02;1.10;1.00
1137;DHT22;557;48.466;7.950;2023-01-29T02:12:11;1.10;20.40
1137;DHT22;557;48.466;7.950;2023-01-29T02:14:59;1.10;1.00
1137;DHT22;557;48.466;7.950;2023-01-29T02:17:48;1.20;1.00
1137;DHT22;557;48.466;7.950;2023-01-29T02:20:36;1.20;1.00
1137;DHT22;557;48.466;7.950;2023-01-29T02:23:46;1.10;1.00
1137;DHT22;557;48.466;7.950;2023-01-29T02:26:52;1.10;1.00
1137;DHT22;557;48.466;7.950;2023-01-29T02:29:54;1.10;1.00
1137;DHT22;557;48.466;7.950;2023-01-29T02:32:50;1.10;1.00
1137;DHT22;557;48.466;7.950;2023-01-29T02:35:48;1.10;1.00
1137;DHT22;557;48.466;7.950;2023-01-29T02:38:42;1.10;1.00
1137;DHT22;557;48.466;7.950;2023-01-29T02:41:37;1.10;1.00
1137;DHT22;557;48.466;7.950;2023-01-29T02:44:31;1.10;1.00
1137;DHT22;557;48.466;7.950;2023-01-29T02:47:27;1.10;1.00
1137;DHT22;557;48.466;7.950;2023-01-29T02:50:20;1.10;1.00
1137;DHT22;557;48.466;7.950;2023-01-29T02:53:15;1.10;1.00
1137;DHT22;557;48.466;7.950;2023-01-29T02:56:08;1.10;1.00
1137;DHT22;557;48.466;7.950;2023-01-29T02:58:59;1.10;1.00
1137;DHT22;557;48.466;7.950;2023-01-29T03:01:50;1.10;1.00
1137;DHT22;557;48.466;7.950;2023-01-29T03:04:43;1.10;99.90
1137;DHT22;557;48.466;7.950;2023-01-29T03:07:34;1.10;99.90
1137;DHT22;557;48.466;7.950;2023-01-29T03:10:35;1.10;1.00
1137;DHT22;557;48.466;7.950;2023-01-29T03:13:29;1.10;99.90
1137;DHT22;557;48.466;7.950;2023-01-29T03:16:23;1.10;1.00
1137;DHT22;557;48.466;7.950;2023-01-29T03:19:14;1.10;99.90
1137;DHT22;557;48.466;7.950;2023-01-29T03:22:04;1.00;1.00
1137;DHT22;557;48.466;7.950;2023-01-29T03:24:56;1.00;1.00
1137;DHT22;557;48.466;7.950;2023-01-29T03:28:03;1.10;1.00
1137;DHT22;557;48.466;7.950;2023-01-29T03:31:10;1.00;1.00
1137;DHT22;557;48.466;7.950;2023-01-29T03:34:19;1.00;99.90
1137;DHT22;557;48.466;7.950;2023-01-29T03:37:16;1.00;1.00
1137;DHT22;557;48.466;7.950;2023-01-29T03:40:09;1.00;99.90
1137;DHT22;557;48.466;7.950;2023-01-29T03:43:06;1.00;99.90
1137;DHT22;557;48.466;7.950;2023-01-29T03:46:01;1.00;99.90
1137;DHT22;557;48.466;7.950;2023-01-29T03:48:53;1.00;99.90
1137;DHT22;557;48.466;7.950;2023-01-29T03:51:48;1.00;99.90
1137;DHT22;557;48.466;7.950;2023-01-29T03:54:45;1.00;99.90
1137;DHT22;557;48.466;7.950;2023-01-29T03:57:39;1.00;99.90
1137;DHT22;557;48.466;7.950;2023-01-29T04:00:31;0.90;99.90
1137;DHT22;557;48.466;7.950;2023-01-29T04:03:50;1.00;99.90
1137;DHT22;557;48.466;7.950;2023-01-29T04:06:40;1.00;99.90
1137;DHT22;557;48.466;7.950;2023-01-29T04:09:30;1.00;99.90
1137;DHT22;557;48.466;7.950;2023-01-29T04:12:23;1.00;1.00
1137;DHT22;557;48.466;7.950;2023-01-29T04:15:14;1.00;99.90
1137;DHT22;557;48.466;7.950;2023-01-29T04:18:02;0.90;31.10
1137;DHT22;557;48.466;7.950;2023-01-29T04:20:50;0.90;1.00
1137;DHT22;557;48.466;7.950;2023-01-29T04:23:38;0.90;1.00
1137;DHT22;557;48.466;7.950;2023-01-29T04:26:37;0.80;99.90
1137;DHT22;557;48.466;7.950;2023-01-29T04:29:41;0.90;1.00
1137;DHT22;557;48.466;7.950;2023-01-29T04:32:34;0.90;5.50
1137;DHT22;557;48.466;7.950;2023-01-29T04:35:30;0.80;1.00
1137;DHT22;557;48.466;7.950;2023-01-29T04:38:24;0.80;1.00
1137;DHT22;557;48.466;7.950;2023-01-29T04:41:20;0.80;1.00
1137;DHT22;557;48.466;7.950;2023-01-29T04:44:15;0.80;99.90
1137;DHT22;557;48.466;7.950;2023-01-29T04:47:15;0.90;1.00
1137;DHT22;557;48.466;7.950;2023-01-29T04:50:11;0.80;1.00
1137;DHT22;557;48.466;7.950;2023-01-29T04:53:05;0.80;99.90
1137;DHT22;557;48.466;7.950;2023-01-29T04:55:58;0.80;99.90
1137;DHT22;557;48.466;7.950;2023-01-29T04:58:50;0.80;72.80
1137;DHT22;557;48.466;7.950;2023-01-29T05:01:41;0.80;79.50
1137;DHT22;557;48.466;7.950;2023-01-29T05:04:33;0.80;1.00
1137;DHT22;557;48.466;7.950;2023-01-29T05:07:22;0.80;99.90
1137;DHT22;557;48.466;7.950;2023-01-29T05:10:12;0.80;1.00
1137;DHT22;557;48.466;7.950;2023-01-29T05:13:02;0.70;99.90
1137;DHT22;557;48.466;7.950;2023-01-29T05:15:55;0.70;99.90
1137;DHT22;557;48.466;7.950;2023-01-29T05:18:43;0.80;14.60
1137;DHT22;557;48.466;7.950;2023-01-29T05:21:32;0.70;38.50
1137;DHT22;557;48.466;7.950;2023-01-29T05:24:21;0.70;1.00
1137;DHT22;557;48.466;7.950;2023-01-29T05:27:10;0.70;99.90
1137;DHT22;557;48.466;7.950;2023-01-29T05:30:19;0.70;99.90
1137;DHT22;557;48.466;7.950;2023-01-29T05:33:11;0.70;99.90
1137;DHT22;557;48.466;7.950;2023-01-29T05:35:59;0.70;1.00
1137;DHT22;557;48.466;7.950;2023-01-29T05:38:48;0.60;99.90
1137;DHT22;557;48.466;7.950;2023-01-29T05:41:35;0.70;26.40
1137;DHT22;557;48.466;7.950;2023-01-29T05:44:23;0.60;99.90
1137;DHT22;557;48.466;7.950;2023-01-29T05:47:10;0.60;99.90
1137;DHT22;557;48.466;7.950;2023-01-29T05:49:58;0.50;99.90
1137;DHT22;557;48.466;7.950;2023-01-29T05:52:45;0.50;99.90
1137;DHT22;557;48.466;7.950;2023-01-29T05:55:33;0.50;99.90
1137;DHT22;557;48.466;7.950;2023-01-29T05:58:21;0.50;99.90
1137;DHT22;557;48.466;7.950;2023-01-29T06:01:12;0.50;1.00
1137;DHT22;557;48.466;7.950;2023-01-29T06:03:59;0.50;1.00
1137;DHT22;557;48.466;7.950;2023-01-29T06:06:47;0.50;1.00
1137;DHT22;557;48.466;7.950;2023-01-29T06:09:34;0.50;1.00
1137;DHT22;557;48.466;7.950;2023-01-29T06:12:23;0.50;1.00
1137;DHT22;557;48.466;7.950;2023-01-29T06:15:11;0.50;1.00
1137;DHT22;557;48.466;7.950;2023-01-29T06:18:00;0.50;1.00
1137;DHT22;557;48.466;7.950;2023-01-29T06:20:47;0.40;1.00
1137;DHT22;557;48.466;7.950;2023-01-29T06:23:34;0.40;1.00
1137;DHT22;557;48.466;7.950;2023-01-29T06:26:22;0.40;1.00
1137;DHT22;557;48.466;7.950;2023-01-29T06:29:11;0.50;1.00
1137;DHT22;557;48.466;7.950;2023-01-29T06:31:58;0.40;1.00
1137;DHT22;557;48.466;7.950;2023-01-29T06:34:45;0.40;1.00
1137;DHT22;557;48.466;7.950;2023-01-29T06:37:33;0.40;5.70
1137;DHT22;557;48.466;7.950;2023-01-29T06:40:20;0.40;99.90
1137;DHT22;557;48.466;7.950;2023-01-29T06:43:08;0.40;2.40
1137;DHT22;557;48.466;7.950;2023-01-29T06:45:56;0.40;93.80
1137;DHT22;557;48.466;7.950;2023-01-29T06:48:44;0.30;82.20
1137;DHT22;557;48.466;7.950;2023-01-29T06:51:31;0.30;99.90
1137;DHT22;557;48.466;7.950;2023-01-29T06:54:18;0.40;42.50
1137;DHT22;557;48.466;7.950;2023-01-29T06:57:06;0.40;1.00
1137;DHT22;557;48.466;7.950;2023-01-29T06:59:53;0.30;89.50
1137;DHT22;557;48.466;7.950;2023-01-29T07:02:42;0.40;99.90
1137;DHT22;557;48.466;7.950;2023-01-29T07:05:29;0.40;99.90
1137;DHT22;557;48.466;7.950;2023-01-29T07:08:17;0.30;99.90
1137;DHT22;557;48.466;7.950;2023-01-29T07:11:07;0.30;99.90
1137;DHT22;557;48.466;7.950;2023-01-29T07:13:54;0.40;99.90
1137;DHT22;557;48.466;7.950;2023-01-29T07:16:42;0.40;99.90
1137;DHT22;557;48.466;7.950;2023-01-29T07:19:30;0.40;99.90
1137;DHT22;557;48.466;7.950;2023-01-29T07:22:18;0.40;99.90
1137;DHT22;557;48.466;7.950;2023-01-29T07:25:06;0.40;99.90
1137;DHT22;557;48.466;7.950;2023-01-29T07:27:54;0.40;99.90
1137;DHT22;557;48.466;7.950;2023-01-29T07:30:41;0.40;99.90
1137;DHT22;557;48.466;7.950;2023-01-29T07:33:29;0.50;99.90
1137;DHT22;557;48.466;7.950;2023-01-29T07:36:17;0.60;99.90
1137;DHT22;557;48.466;7.950;2023-01-29T07:39:05;0.60;99.90
1137;DHT22;557;48.466;7.950;2023-01-29T07:41:52;0.60;95.20
1137;DHT22;557;48.466;7.950;2023-01-29T07:44:39;0.60;99.90
1137;DHT22;557;48.466;7.950;2023-01-29T07:47:27;0.60;99.90
1137;DHT22;557;48.466;7.950;2023-01-29T07:50:14;0.60;99.90
1137;DHT22;557;48.466;7.950;2023-01-29T07:53:03;0.70;26.80
1137;DHT22;557;48.466;7.950;2023-01-29T07:55:50;0.80;1.00
1137;DHT22;557;48.466;7.950;2023-01-29T07:58:38;0.80;1.00
1137;DHT22;557;48.466;7.950;2023-01-29T08:01:25;0.90;1.00
1137;DHT22;557;48.466;7.950;2023-01-29T08:04:13;0.90;99.90
1137;DHT22;557;48.466;7.950;2023-01-29T08:07:00;1.00;99.90
1137;DHT22;557;48.466;7.950;2023-01-29T08:09:51;0.90;99.90
1137;DHT22;557;48.466;7.950;2023-01-29T08:12:38;1.00;57.10
1137;DHT22;557;48.466;7.950;2023-01-29T08:15:26;0.90;99.90
1137;DHT22;557;48.466;7.950;2023-01-29T08:18:14;0.90;1.00
1137;DHT22;557;48.466;7.950;2023-01-29T08:21:01;0.90;50.50
1137;DHT22;557;48.466;7.950;2023-01-29T08:23:48;0.90;99.90
1137;DHT22;557;48.466;7.950;2023-01-29T08:26:37;0.90;99.90
1137;DHT22;557;48.466;7.950;2023-01-29T08:29:24;1.00;99.90
1137;DHT22;557;48.466;7.950;2023-01-29T08:32:11;1.00;99.90
1137;DHT22;557;48.466;7.950;2023-01-29T08:34:59;1.10;99.90
1137;DHT22;557;48.466;7.950;2023-01-29T08:37:52;1.10;99.90
1137;DHT22;557;48.466;7.950;2023-01-29T08:40:40;1.20;32.50
1137;DHT22;557;48.466;7.950;2023-01-29T08:43:28;1.20;22.80
1137;DHT22;557;48.466;7.950;2023-01-29T08:46:16;1.30;1.00
1137;DHT22;557;48.466;7.950;2023-01-29T08:49:03;1.20;1.00
1137;DHT22;557;48.466;7.950;2023-01-29T08:51:50;1.20;99.90
1137;DHT22;557;48.466;7.950;2023-01-29T08:54:38;1.20;99.90
1137;DHT22;557;48.466;7.950;2023-01-29T08:57:26;1.30;99.90
1137;DHT22;557;48.466;7.950;2023-01-29T09:00:15;1.30;1.00
1137;DHT22;557;48.466;7.950;2023-01-29T09:03:03;1.30;99.90
1137;DHT22;557;48.466;7.950;2023-01-29T09:05:52;1.40;1.00
1137;DHT22;557;48.466;7.950;2023-01-29T09:08:40;1.50;1.00
1137;DHT22;557;48.466;7.950;2023-01-29T09:11:27;1.50;9.10
1137;DHT22;557;48.466;7.950;2023-01-29T09:14:14;1.60;4.90
1137;DHT22;557;48.466;7.950;2023-01-29T09:17:03;1.70;1.00
1137;DHT22;557;48.466;7.950;2023-01-29T09:19:50;1.80;99.90
1137;DHT22;557;48.466;7.950;2023-01-29T09:22:38;1.90;1.00
1137;DHT22;557;48.466;7.950;2023-01-29T09:25:25;2.00;1.00
1137;DHT22;557;48.466;7.950;2023-01-29T09:28:13;2.00;1.00
1137;DHT22;557;48.466;7.950;2023-01-29T09:31:02;2.10;1.00
1137;DHT22;557;48.466;7.950;2023-01-29T09:33:51;2.20;16.80
1137;DHT22;557;48.466;7.950;2023-01-29T09:36:38;2.10;99.90
1137;DHT22;557;48.466;7.950;2023-01-29T09:39:26;2.30;1.00
1137;DHT22;557;48.466;7.950;2023-01-29T09:42:19;2.40;1.00
1137;DHT22;557;48.466;7.950;2023-01-29T09:45:12;2.40;1.00
1137;DHT22;557;48.466;7.950;2023-01-29T09:48:02;2.50;1.00
1137;DHT22;557;48.466;7.950;2023-01-29T09:50:53;2.70;1.00
1137;DHT22;557;48.466;7.950;2023-01-29T09:53:45;2.70;1.00
1137;DHT22;557;48.466;7.950;2023-01-29T09:56:34;2.80;1.00
1137;DHT22;557;48.466;7.950;2023-01-29T09:59:23;2.70;1.00
1137;DHT22;557;48.466;7.950;2023-01-29T10:02:21;2.80;99.90
1137;DHT22;557;48.466;7.950;2023-01-29T10:05:25;3.00;1.00
1137;DHT22;557;48.466;7.950;2023-01-29T10:11:40;2.90;1.00
1137;DHT22;557;48.466;7.950;2023-01-29T10:14:36;2.70;1.00
1137;DHT22;557;48.466;7.950;2023-01-29T10:17:45;2.70;99.90
1137;DHT22;557;48.466;7.950;2023-01-29T10:20:49;2.60;99.90
1137;DHT22;557;48.466;7.950;2023-01-29T10:23:40;2.70;99.90
1137;DHT22;557;48.466;7.950;2023-01-29T10:26:33;2.90;99.90
1137;DHT22;557;48.466;7.950;2023-01-29T10:29:23;3.10;72.20
1137;DHT22;557;48.466;7.950;2023-01-29T10:32:14;3.20;1.00
1137;DHT22;557;48.466;7.950;2023-01-29T10:35:04;3.20;1.00
1137;DHT22;557;48.466;7.950;2023-01-29T10:37:52;3.20;1.00
1137;DHT22;557;48.466;7.950;2023-01-29T10:40:44;2.90;1.00
1137;DHT22;557;48.466;7.950;2023-01-29T10:43:38;2.80;1.00
1137;DHT22;557;48.466;7.950;2023-01-29T10:46:40;2.90;1.00
1137;DHT22;557;48.466;7.950;2023-01-29T10:49:41;2.80;1.00
1137;DHT22;557;48.466;7.950;2023-01-29T10:52:49;3.00;1.00
1137;DHT22;557;48.466;7.950;2023-01-29T10:55:45;3.00;1.00
1137;DHT22;557;48.466;7.950;2023-01-29T10:58:42;3.00;1.00
1137;DHT22;557;48.466;7.950;2023-01-29T11:01:31;3.00;1.00
1137;DHT22;557;48.466;7.950;2023-01-29T11:04:18;3.00;1.00
1137;DHT22;557;48.466;7.950;2023-01-29T11:07:06;3.10;1.00
1137;DHT22;557;48.466;7.950;2023-01-29T11:09:56;3.10;1.00
1137;DHT22;557;48.466;7.950;2023-01-29T11:12:45;3.30;1.00
1137;DHT22;557;48.466;7.950;2023-01-29T11:15:34;3.40;1.00
1137;DHT22;557;48.466;7.950;2023-01-29T11:18:21;3.50;1.00
1137;DHT22;557;48.466;7.950;2023-01-29T11:21:09;3.40;99.90
1137;DHT22;557;48.466;7.950;2023-01-29T11:24:10;3.50;1.00
1137;DHT22;557;48.466;7.950;2023-01-29T11:27:13;3.90;1.00
1137;DHT22;557;48.466;7.950;2023-01-29T11:30:01;4.30;1.00
1137;DHT22;557;48.466;7.950;2023-01-29T11:33:04;4.50;99.90
1137;DHT22;557;48.466;7.950;2023-01-29T11:35:53;4.80;99.90
1137;DHT22;557;48.466;7.950;2023-01-29T11:38:42;5.00;99.90
1137;DHT22;557;48.466;7.950;2023-01-29T11:41:29;5.20;99.90
1137;DHT22;557;48.466;7.950;2023-01-29T11:44:30;5.00;99.90
1137;DHT22;557;48.466;7.950;2023-01-29T11:47:19;4.90;99.90
1137;DHT22;557;48.466;7.950;2023-01-29T11:50:19;4.60;99.90
1137;DHT22;557;48.466;7.950;2023-01-29T11:53:21;5.00;99.90
1137;DHT22;557;48.466;7.950;2023-01-29T11:56:19;5.10;99.90
1137;DHT22;557;48.466;7.950;2023-01-29T11:59:26;4.80;99.90
1137;DHT22;557;48.466;7.950;2023-01-29T12:02:33;4.70;99.90
1137;DHT22;557;48.466;7.950;2023-01-29T12:05:24;4.90;99.90
1137;DHT22;557;48.466;7.950;2023-01-29T12:08:15;5.20;99.90
1137;DHT22;557;48.466;7.950;2023-01-29T12:11:10;5.40;99.90
1137;DHT22;557;48.466;7.950;2023-01-29T12:13:58;5.30;99.90
1137;DHT22;557;48.466;7.950;2023-01-29T12:16:52;5.40;99.90
1137;DHT22;557;48.466;7.950;2023-01-29T12:19:46;4.90;99.90
1137;DHT22;557;48.466;7.950;2023-01-29T12:22:41;4.60;99.90
1137;DHT22;557;48.466;7.950;2023-01-29T12:25:40;4.50;99.90
1137;DHT22;557;48.466;7.950;2023-01-29T12:28:39;4.80;99.90
1137;DHT22;557;48.466;7.950;2023-01-29T12:31:33;5.10;99.90
1137;DHT22;557;48.466;7.950;2023-01-29T12:34:26;5.20;99.90
1137;DHT22;557;48.466;7.950;2023-01-29T12:37:20;5.20;99.90
1137;DHT22;557;48.466;7.950;2023-01-29T12:40:14;5.30;99.90
1137;DHT22;557;48.466;7.950;2023-01-29T12:43:06;5.30;99.90
1137;DHT22;557;48.466;7.950;2023-01-29T12:45:58;5.10;99.90
1137;DHT22;557;48.466;7.950;2023-01-29T12:48:48;5.00;99.90
1137;DHT22;557;48.466;7.950;2023-01-29T12:51:39;5.00;99.90
1137;DHT22;557;48.466;7.950;2023-01-29T12:54:34;5.30;99.90
1137;DHT22;557;48.466;7.950;2023-01-29T12:57:33;5.60;99.90
1137;DHT22;557;48.466;7.950;2023-01-29T13:00:23;5.70;99.90
1137;DHT22;557;48.466;7.950;2023-01-29T13:03:18;6.10;99.90
1137;DHT22;557;48.466;7.950;2023-01-29T13:06:09;6.70;99.90
1137;DHT22;557;48.466;7.950;2023-01-29T13:09:03;6.10;99.90
1137;DHT22;557;48.466;7.950;2023-01-29T13:11:53;5.70;99.90
1137;DHT22;557;48.466;7.950;2023-01-29T13:14:47;5.50;99.90
1137;DHT22;557;48.466;7.950;2023-01-29T13:17:40;5.60;99.90
1137;DHT22;557;48.466;7.950;2023-01-29T13:20:30;5.10;99.90
1137;DHT22;557;48.466;7.950;2023-01-29T13:23:21;4.90;99.90
1137;DHT22;557;48.466;7.950;2023-01-29T13:26:08;4.70;99.90
1137;DHT22;557;48.466;7.950;2023-01-29T13:28:57;4.20;99.90
1137;DHT22;557;48.466;7.950;2023-01-29T13:31:47;4.30;99.90
1137;DHT22;557;48.466;7.950;2023-01-29T13:34:41;4.90;99.90
1137;DHT22;557;48.466;7.950;2023-01-29T13:37:32;5.50;99.90
1137;DHT22;557;48.466;7.950;2023-01-29T13:40:23;5.70;99.90
1137;DHT22;557;48.466;7.950;2023-01-29T13:43:18;5.70;99.90
1137;DHT22;557;48.466;7.950;2023-01-29T13:46:08;6.00;99.90
1137;DHT22;557;48.466;7.950;2023-01-29T13:48:58;6.10;99.90
1137;DHT22;557;48.466;7.950;2023-01-29T13:51:49;6.40;99.90
1137;DHT22;557;48.466;7.950;2023-01-29T13:54:40;6.30;99.90
1137;DHT22;557;48.466;7.950;2023-01-29T13:57:59;5.80;99.90
1137;DHT22;557;48.466;7.950;2023-01-29T14:00:48;5.30;99.90
1137;DHT22;557;48.466;7.950;2023-01-29T14:03:50;5.10;99.90
1137;DHT22;557;48.466;7.950;2023-01-29T14:06:47;5.50;99.90
1137;DHT22;557;48.466;7.950;2023-01-29T14:12:51;4.70;99.90
1137;DHT22;557;48.466;7.950;2023-01-29T14:15:38;4.30;99.90
1137;DHT22;557;48.466;7.950;2023-01-29T14:18:26;4.20;99.90
1137;DHT22;557;48.466;7.950;2023-01-29T14:21:20;3.90;99.90
1137;DHT22;557;48.466;7.950;2023-01-29T14:24:17;4.00;99.90
1137;DHT22;557;48.466;7.950;2023-01-29T14:27:18;4.20;99.90
1137;DHT22;557;48.466;7.950;2023-01-29T14:30:07;4.20;99.90
1137;DHT22;557;48.466;7.950;2023-01-29T14:32:56;4.30;99.90
1137;DHT22;557;48.466;7.950;2023-01-29T14:35:48;4.30;99.90
1137;DHT22;557;48.466;7.950;2023-01-29T14:38:38;4.30;99.90
1137;DHT22;557;48.466;7.950;2023-01-29T14:41:29;4.40;99.90
1137;DHT22;557;48.466;7.950;2023-01-29T14:51:12;4.50;99.90
1137;DHT22;557;48.466;7.950;2023-01-29T14:54:02;4.40;99.90
1137;DHT22;557;48.466;7.950;2023-01-29T14:56:56;4.40;99.90
1137;DHT22;557;48.466;7.950;2023-01-29T14:59:50;4.40;99.90
1137;DHT22;557;48.466;7.950;2023-01-29T15:02:41;4.50;99.90
1137;DHT22;557;48.466;7.950;2023-01-29T15:05:31;4.50;99.90
1137;DHT22;557;48.466;7.950;2023-01-29T15:08:26;4.30;99.90
1137;DHT22;557;48.466;7.950;2023-01-29T15:11:24;4.40;99.90
1137;DHT22;557;48.466;7.950;2023-01-29T15:14:30;4.00;99.90
1137;DHT22;557;48.466;7.950;2023-01-29T15:17:24;4.00;99.90
1137;DHT22;557;48.466;7.950;2023-01-29T15:20:30;4.00;99.90
1137;DHT22;557;48.466;7.950;2023-01-29T15:23:25;3.70;99.90
1137;DHT22;557;48.466;7.950;2023-01-29T15:26:17;3.40;99.90
1137;DHT22;557;48.466;7.950;2023-01-29T15:29:04;3.30;99.90
1137;DHT22;557;48.466;7.950;2023-01-29T15:31:54;3.20;99.90
1137;DHT22;557;48.466;7.950;2023-01-29T15:34:41;3.10;99.90
1137;DHT22;557;48.466;7.950;2023-01-29T15:37:31;3.00;99.90
1137;DHT22;557;48.466;7.950;2023-01-29T15:40:19;2.90;99.90
1137;DHT22;557;48.466;7.950;2023-01-29T15:43:19;2.80;99.90
1137;DHT22;557;48.466;7.950;2023-01-29T15:46:14;2.70;99.90
1137;DHT22;557;48.466;7.950;2023-01-29T15:49:08;2.60;99.90
1137;DHT22;557;48.466;7.950;2023-01-29T15:51:58;2.60;1.00
1137;DHT22;557;48.466;7.950;2023-01-29T15:54:47;2.50;1.00
1137;DHT22;557;48.466;7.950;2023-01-29T15:57:36;2.50;1.00
1137;DHT22;557;48.466;7.950;2023-01-29T16:00:27;2.40;1.00
1137;DHT22;557;48.466;7.950;2023-01-29T16:03:15;2.40;1.00
1137;DHT22;557;48.466;7.950;2023-01-29T16:06:05;2.30;1.00
1137;DHT22;557;48.466;7.950;2023-01-29T16:08:54;2.20;1.00
1137;DHT22;557;48.466;7.950;2023-01-29T16:11:42;2.10;99.90
1137;DHT22;557;48.466;7.950;2023-01-29T16:14:30;2.00;99.90
1137;DHT22;557;48.466;7.950;2023-01-29T16:17:22;2.00;99.90
1137;DHT22;557;48.466;7.950;2023-01-29T16:20:26;1.90;1.00
1137;DHT22;557;48.466;7.950;2023-01-29T16:23:18;1.80;99.90
1137;DHT22;557;48.466;7.950;2023-01-29T16:26:11;1.70;99.90
1137;DHT22;557;48.466;7.950;2023-01-29T16:29:03;1.80;1.00
1137;DHT22;557;48.466;7.950;2023-01-29T16:31:53;1.70;1.00
1137;DHT22;557;48.466;7.950;2023-01-29T16:34:46;1.60;1.00
1137;DHT22;557;48.466;7.950;2023-01-29T16:37:34;1.50;99.90
1137;DHT22;557;48.466;7.950;2023-01-29T16:40:27;1.40;1.00
1137;DHT22;557;48.466;7.950;2023-01-29T16:43:48;1.30;1.00
1137;DHT22;557;48.466;7.950;2023-01-29T16:46:37;1.20;99.90
1137;DHT22;557;48.466;7.950;2023-01-29T16:49:45;1.10;1.00
1137;DHT22;557;48.466;7.950;2023-01-29T16:52:34;0.90;1.00
1137;DHT22;557;48.466;7.950;2023-01-29T16:55:23;0.80;9.50
1137;DHT22;557;48.466;7.950;2023-01-29T16:58:15;0.80;1.00
1137;DHT22;557;48.466;7.950;2023-01-29T17:01:06;0.70;99.90
1137;DHT22;557;48.466;7.950;2023-01-29T17:03:59;0.60;99.90
1137;DHT22;557;48.466;7.950;2023-01-29T17:06:52;0.60;1.00
1137;DHT22;557;48.466;7.950;2023-01-29T17:09:40;0.60;1.00
1137;DHT22;557;48.466;7.950;2023-01-29T17:12:29;0.50;1.00
1137;DHT22;557;48.466;7.950;2023-01-29T17:15:44;0.40;99.90
1137;DHT22;557;48.466;7.950;2023-01-29T17:18:32;0.30;99.90
1137;DHT22;557;48.466;7.950;2023-01-29T17:21:19;0.30;1.00
1137;DHT22;557;48.466;7.950;2023-01-29T17:24:07;0.10;99.90
1137;DHT22;557;48.466;7.950;2023-01-29T17:26:54;0.00;1.00
1137;DHT22;557;48.466;7.950;2023-01-29T17:29:42;-0.10;1.00
1137;DHT22;557;48.466;7.950;2023-01-29T17:32:31;-0.10;1.00
1137;DHT22;557;48.466;7.950;2023-01-29T17:35:18;-0.20;1.00
1137;DHT22;557;48.466;7.950;2023-01-29T17:38:09;-0.20;1.00
1137;DHT22;557;48.466;7.950;2023-01-29T17:40:58;-0.20;1.00
1137;DHT22;557;48.466;7.950;2023-01-29T17:43:46;-0.30;1.00
1137;DHT22;557;48.466;7.950;2023-01-29T17:46:33;-0.30;1.00
1137;DHT22;557;48.466;7.950;2023-01-29T17:49:25;-0.30;1.00
1137;DHT22;557;48.466;7.950;2023-01-29T17:52:13;-0.40;1.00
1137;DHT22;557;48.466;7.950;2023-01-29T17:55:00;-0.40;1.00
1137;DHT22;557;48.466;7.950;2023-01-29T17:57:47;-0.50;1.00
1137;DHT22;557;48.466;7.950;2023-01-29T18:00:35;-0.50;1.00
1137;DHT22;557;48.466;7.950;2023-01-29T18:03:22;-0.50;1.00
1137;DHT22;557;48.466;7.950;2023-01-29T18:06:21;-0.50;1.00
1137;DHT22;557;48.466;7.950;2023-01-29T18:09:12;-0.50;1.00
1137;DHT22;557;48.466;7.950;2023-01-29T18:12:00;-0.50;1.00
1137;DHT22;557;48.466;7.950;2023-01-29T18:14:47;-0.60;1.00
1137;DHT22;557;48.466;7.950;2023-01-29T18:17:35;-0.60;1.00
1137;DHT22;557;48.466;7.950;2023-01-29T18:20:23;-0.70;1.00
1137;DHT22;557;48.466;7.950;2023-01-29T18:23:12;-0.70;1.00
1137;DHT22;557;48.466;7.950;2023-01-29T18:25:59;-0.70;4.60
1137;DHT22;557;48.466;7.950;2023-01-29T18:28:47;-0.70;1.70
1137;DHT22;557;48.466;7.950;2023-01-29T18:31:35;-0.60;4.40
1137;DHT22;557;48.466;7.950;2023-01-29T18:34:23;-0.70;6.10
1137;DHT22;557;48.466;7.950;2023-01-29T18:37:10;-0.60;10.10
1137;DHT22;557;48.466;7.950;2023-01-29T18:39:59;-0.60;6.10
1137;DHT22;557;48.466;7.950;2023-01-29T18:42:46;-0.60;3.20
1137;DHT22;557;48.466;7.950;2023-01-29T18:45:34;-0.60;9.30
1137;DHT22;557;48.466;7.950;2023-01-29T18:48:21;-0.70;13.10
1137;DHT22;557;48.466;7.950;2023-01-29T18:51:09;-0.70;16.30
1137;DHT22;557;48.466;7.950;2023-01-29T18:53:56;-0.60;16.80
1137;DHT22;557;48.466;7.950;2023-01-29T18:56:45;-0.70;14.00
1137;DHT22;557;48.466;7.950;2023-01-29T18:59:32;-0.60;18.50
1137;DHT22;557;48.466;7.950;2023-01-29T19:02:19;-0.50;16.80
1137;DHT22;557;48.466;7.950;2023-01-29T19:05:07;-0.60;12.80
1137;DHT22;557;48.466;7.950;2023-01-29T19:07:54;-0.50;14.90
1137;DHT22;557;48.466;7.950;2023-01-29T19:10:42;-0.50;11.50
1137;DHT22;557;48.466;7.950;2023-01-29T19:13:31;-0.60;10.60
1137;DHT22;557;48.466;7.950;2023-01-29T19:16:18;-0.60;10.30
1137;DHT22;557;48.466;7.950;2023-01-29T19:19:05;-0.60;14.00
1137;DHT22;557;48.466;7.950;2023-01-29T19:21:53;-0.50;12.20
1137;DHT22;557;48.466;7.950;2023-01-29T19:24:41;-0.50;8.80
1137;DHT22;557;48.466;7.950;2023-01-29T19:27:28;-0.50;2.00
1137;DHT22;557;48.466;7.950;2023-01-29T19:30:18;-0.50;1.00
1137;DHT22;557;48.466;7.950;2023-01-29T19:33:05;-0.50;1.00
1137;DHT22;557;48.466;7.950;2023-01-29T19:35:54;-0.60;2.20